Paso de los Libres, Argentina
Current Conditions -  °F | °C
As of 4:00 AM on Thursday 18 Dec 2014 (Local Time) from SARL Reporting Station
Clear Clear  
Wind Chill: 20°   Ceiling: Unl
Heat Index: 20°   Visibility: 5mi
Dew Point: 19°   Wind: 6mph
Humidity: 94%   Direction: 270°W
Pressure: 29.85"   Gusts: NA
Location:  29.72°S, 57.08°W
Report Text: SARL 180700Z 27005KT 8000 NSC 20/19 Q1011
Loading
Personal Weather Stations






























Interactive Weather Map New forecast layout! Learn more

10-Day Weather Forecast

Advertisements
Track Severe Weather on mobile